Alma, Arkansas
Current Conditions -  °F | °C
As of 11:53 AM on Monday 22 Dec 2014 (Local Time) from KFSM Reporting Station
Haze Haze  
Wind Chill: 51°   Ceiling: 500
Heat Index: 51°   Visibility: 4mi
Dew Point: 49°   Wind: 5mph
Humidity: 92%   Direction: 50°NE
Pressure: 29.58"   Gusts: NA
Location:  35.48°N, 94.22°W
Report Text: KFSM 221753Z 05004KT 4SM BR BKN005 OVC020 11/09 A2958 RMK AO2 SLP017 60001 T01060094 10106 20083 58018
Loading
Personal Weather Stations






























Interactive Weather Map New forecast layout! Learn more

10-Day Weather Forecast

Advertisements
Track Severe Weather on mobile